Brant — 5BBK2 — position and weather

sailwx.info

Track history (hours):
 
Tides and Currents Weather Stations Pressure Air Temp Water Temp Dewpoint Dewpoint Depression Visibility Wind Speed Wind Dir Waves Ship Positions

Brant

Last reported at 2017-Nov-17 17:20 UTC. Time now 2017-Nov-24 09:41 UTC.
Position N 27°41' W 082°35'.

Length 185 m; draft 9.3 m.

Type: Cargo ship. MMSI: 212372000.

Date/timePositionNaut miles runAvg speedWind from/ knotsBaromVisibWave heightAir tempDewpointWater temp
2017-Nov-17 17:20N 27°41' W 082°35'310.3
2017-Nov-17 17:00N 27°43' W 082°32'5 9.7
2017-Nov-17 16:30N 27°48' W 082°29'4 7.3
2017-Nov-17 16:00N 27°48' W 082°25'1 0.5
2017-Nov-17 14:26N 27°48' W 082°25'0 0.0
2017-Nov-17 13:02N 27°48' W 082°25'0 0.0
2017-Nov-17 12:50N 27°48' W 082°25'0 0.0
2017-Nov-17 12:26N 27°48' W 082°25'0 0.0
2017-Nov-17 11:20N 27°48' W 082°25'0 0.0
2017-Nov-17 10:44N 27°48' W 082°25'0 0.0
2017-Nov-17 07:02N 27°48' W 082°25'0 0.0
2017-Nov-17 06:38N 27°48' W 082°25'0 0.0
2017-Nov-17 06:26N 27°48' W 082°25'0 0.0
2017-Nov-17 05:20N 27°48' W 082°25'0 0.0
2017-Nov-17 04:56N 27°48' W 082°25'0 0.0
2017-Nov-17 04:26N 27°48' W 082°25'0 0.0
2017-Nov-17 03:50N 27°48' W 082°25'0 0.0
2017-Nov-17 02:32N 27°48' W 082°25'0 0.0
2017-Nov-17 02:20N 27°48' W 082°25'0 0.0
2017-Nov-17 01:56N 27°48' W 082°25'0 0.0
2017-Nov-17 01:26N 27°48' W 082°25'0 0.0
2017-Nov-17 00:50N 27°48' W 082°25'0 0.0
2017-Nov-17 00:20N 27°48' W 082°25'0 0.0
2017-Nov-16 23:56N 27°48' W 082°25'0 0.0
2017-Nov-16 23:26N 27°48' W 082°25'0 0.0
2017-Nov-16 20:14N 27°48' W 082°25'0 0.0
2017-Nov-16 19:50N 27°48' W 082°25'0 0.0
2017-Nov-16 18:50N 27°48' W 082°25'0 0.0
2017-Nov-16 17:50N 27°48' W 082°25'0 0.0
2017-Nov-16 17:20N 27°48' W 082°25'0 0.0
2017-Nov-16 16:50N 27°48' W 082°25'0 0.0
2017-Nov-16 16:20N 27°48' W 082°25'0 0.0
2017-Nov-16 15:56N 27°48' W 082°25'0 0.0
2017-Nov-16 15:20N 27°48' W 082°25'0 0.0
2017-Nov-16 14:56N 27°48' W 082°25'0 0.0
2017-Nov-16 13:44N 27°48' W 082°25'0 0.0
2017-Nov-16 13:26N 27°48' W 082°25'0 0.0
2017-Nov-16 12:56N 27°48' W 082°25'0 0.5
2017-Nov-16 12:30N 27°48' W 082°25'2 3.9
2017-Nov-16 12:00N 27°49' W 082°27'5 9.3
2017-Nov-16 11:30N 27°53' W 082°26'2 4.7
2017-Nov-16 11:00N 27°56' W 082°26'0 0.0
2017-Nov-16 10:30N 27°56' W 082°26'0 0.0
2017-Nov-16 10:00N 27°56' W 082°26'0 0.0
2017-Nov-16 09:30N 27°56' W 082°26'0 0.0
2017-Nov-16 09:00N 27°56' W 082°26'0 0.0
2017-Nov-16 08:30N 27°56' W 082°26'0 0.0
2017-Nov-16 08:00N 27°56' W 082°26'0 0.0
2017-Nov-16 07:30N 27°56' W 082°26'0 0.0
2017-Nov-16 07:00N 27°56' W 082°26'0 0.1
2017-Nov-16 06:30N 27°56' W 082°26'0 0.0
2017-Nov-16 06:00N 27°56' W 082°26'0 0.0
2017-Nov-16 05:30N 27°56' W 082°26'0 0.0
2017-Nov-16 05:00N 27°56' W 082°26'0 0.0
2017-Nov-16 04:30N 27°56' W 082°26'0 0.0
2017-Nov-16 04:00N 27°56' W 082°26'0 0.0
2017-Nov-16 03:30N 27°56' W 082°26'0 0.1
2017-Nov-16 03:00N 27°56' W 082°26'0 0.0
2017-Nov-16 02:30N 27°56' W 082°26'0 0.0
2017-Nov-16 02:00N 27°56' W 082°26'0 0.0
2017-Nov-16 01:30N 27°56' W 082°26'0 0.0
2017-Nov-16 00:57N 27°56' W 082°26'0 0.0
2017-Nov-16 00:30N 27°56' W 082°26'0 0.0
2017-Nov-16 00:00N 27°56' W 082°26'0 0.0
2017-Nov-15 23:30N 27°56' W 082°26'0 0.0
2017-Nov-15 23:00N 27°56' W 082°26'0 0.0
2017-Nov-15 22:30N 27°56' W 082°26'0 0.0
2017-Nov-15 22:00N 27°56' W 082°26'0 0.4
2017-Nov-15 21:30N 27°56' W 082°26'0 1.0
2017-Nov-15 21:00N 27°55' W 082°25'0 0.0
2017-Nov-15 20:30N 27°55' W 082°25'0 0.0
2017-Nov-15 20:00N 27°55' W 082°25'0 0.0
2017-Nov-15 19:30N 27°55' W 082°25'0 0.0
2017-Nov-15 19:00N 27°55' W 082°25'0 0.0
2017-Nov-15 18:30N 27°55' W 082°25'0 0.0
2017-Nov-15 18:00N 27°55' W 082°25'0 0.0
2017-Nov-15 17:30N 27°55' W 082°25'0 0.0
2017-Nov-15 17:00N 27°55' W 082°25'0 0.0
2017-Nov-15 16:30N 27°55' W 082°25'0 0.0
2017-Nov-15 16:00N 27°55' W 082°25'0 0.0
2017-Nov-15 15:30N 27°55' W 082°25'0 0.0
2017-Nov-15 15:00N 27°55' W 082°25'0 0.0
2017-Nov-15 14:30N 27°55' W 082°25'0 0.0
2017-Nov-15 14:00N 27°55' W 082°25'0 0.0
2017-Nov-15 13:30N 27°55' W 082°25'0 0.0
2017-Nov-15 13:00N 27°55' W 082°25'0 0.0
2017-Nov-15 12:30N 27°55' W 082°25'0 0.0
2017-Nov-15 12:00N 27°55' W 082°25'0 0.0
2017-Nov-15 11:30N 27°55' W 082°25'0 0.0
2017-Nov-15 10:57N 27°55' W 082°25'0 0.0
2017-Nov-15 10:30N 27°55' W 082°25'0 0.0
2017-Nov-15 10:00N 27°55' W 082°25'0 0.0
2017-Nov-15 09:30N 27°55' W 082°25'0 0.0
2017-Nov-15 09:00N 27°55' W 082°25'0 0.0
2017-Nov-15 08:30N 27°55' W 082°25'0 0.0
2017-Nov-15 08:00N 27°55' W 082°25'0 0.0
2017-Nov-15 07:30N 27°55' W 082°25'0 0.0
2017-Nov-15 07:00N 27°55' W 082°25'0 0.0
2017-Nov-15 06:30N 27°55' W 082°25'0 0.0
2017-Nov-15 06:00N 27°55' W 082°25'0 0.0
2017-Nov-15 05:30N 27°55' W 082°25'0 0.0
2017-Nov-15 05:00N 27°55' W 082°25'0 0.0
2017-Nov-15 04:30N 27°55' W 082°25'0 0.0
2017-Nov-15 04:00N 27°55' W 082°25'0 0.0
2017-Nov-15 03:30N 27°55' W 082°25'0 0.0
2017-Nov-15 03:00N 27°55' W 082°25'0 0.0
2017-Nov-15 02:30N 27°55' W 082°25'0 0.0
2017-Nov-15 02:00N 27°55' W 082°25'0 0.0
2017-Nov-15 01:30N 27°55' W 082°25'0 0.0
2017-Nov-15 01:00N 27°55' W 082°25'0 0.0
2017-Nov-15 00:30N 27°55' W 082°25'0 0.0
2017-Nov-15 00:00N 27°55' W 082°25'0 0.0
2017-Nov-14 23:30N 27°55' W 082°25'0 0.4
2017-Nov-14 23:00N 27°55' W 082°25'2 4.9
2017-Nov-14 22:30N 27°53' W 082°26'510.3
2017-Nov-14 22:00N 27°48' W 082°29'510.6
2017-Nov-14 21:30N 27°44' W 082°32'611.6
2017-Nov-14 20:58N 27°39' W 082°37'  
Track history (hours):
 
Tides and Currents Weather Stations Pressure Air Temp Water Temp Dewpoint Dewpoint Depression Visibility Wind Speed Wind Dir Waves Ship Positions

Brant

Last reported at 2017-Nov-17 17:20 UTC. Time now 2017-Nov-24 09:41 UTC.
Position N 27°41' W 082°35'.

Length 185 m; draft 9.3 m.

Type: Cargo ship. MMSI: 212372000.

Date/timePositionNaut miles runAvg speedWind from/ knotsBaromVisibWave heightAir tempDewpointWater temp
2017-Nov-17 17:20N 27°41' W 082°35'310.3
2017-Nov-17 17:00N 27°43' W 082°32'5 9.7
2017-Nov-17 16:30N 27°48' W 082°29'4 7.3
2017-Nov-17 16:00N 27°48' W 082°25'1 0.5
2017-Nov-17 14:26N 27°48' W 082°25'0 0.0
2017-Nov-17 13:02N 27°48' W 082°25'0 0.0
2017-Nov-17 12:50N 27°48' W 082°25'0 0.0
2017-Nov-17 12:26N 27°48' W 082°25'0 0.0
2017-Nov-17 11:20N 27°48' W 082°25'0 0.0
2017-Nov-17 10:44N 27°48' W 082°25'0 0.0
2017-Nov-17 07:02N 27°48' W 082°25'0 0.0
2017-Nov-17 06:38N 27°48' W 082°25'0 0.0
2017-Nov-17 06:26N 27°48' W 082°25'0 0.0
2017-Nov-17 05:20N 27°48' W 082°25'0 0.0
2017-Nov-17 04:56N 27°48' W 082°25'0 0.0
2017-Nov-17 04:26N 27°48' W 082°25'0 0.0
2017-Nov-17 03:50N 27°48' W 082°25'0 0.0
2017-Nov-17 02:32N 27°48' W 082°25'0 0.0
2017-Nov-17 02:20N 27°48' W 082°25'0 0.0
2017-Nov-17 01:56N 27°48' W 082°25'0 0.0
2017-Nov-17 01:26N 27°48' W 082°25'0 0.0
2017-Nov-17 00:50N 27°48' W 082°25'0 0.0
2017-Nov-17 00:20N 27°48' W 082°25'0 0.0
2017-Nov-16 23:56N 27°48' W 082°25'0 0.0
2017-Nov-16 23:26N 27°48' W 082°25'0 0.0
2017-Nov-16 20:14N 27°48' W 082°25'0 0.0
2017-Nov-16 19:50N 27°48' W 082°25'0 0.0
2017-Nov-16 18:50N 27°48' W 082°25'0 0.0
2017-Nov-16 17:50N 27°48' W 082°25'0 0.0
2017-Nov-16 17:20N 27°48' W 082°25'0 0.0
2017-Nov-16 16:50N 27°48' W 082°25'0 0.0
2017-Nov-16 16:20N 27°48' W 082°25'0 0.0
2017-Nov-16 15:56N 27°48' W 082°25'0 0.0
2017-Nov-16 15:20N 27°48' W 082°25'0 0.0
2017-Nov-16 14:56N 27°48' W 082°25'0 0.0
2017-Nov-16 13:44N 27°48' W 082°25'0 0.0
2017-Nov-16 13:26N 27°48' W 082°25'0 0.0
2017-Nov-16 12:56N 27°48' W 082°25'0 0.5
2017-Nov-16 12:30N 27°48' W 082°25'2 3.9
2017-Nov-16 12:00N 27°49' W 082°27'5 9.3
2017-Nov-16 11:30N 27°53' W 082°26'2 4.7
2017-Nov-16 11:00N 27°56' W 082°26'0 0.0
2017-Nov-16 10:30N 27°56' W 082°26'0 0.0
2017-Nov-16 10:00N 27°56' W 082°26'0 0.0
2017-Nov-16 09:30N 27°56' W 082°26'0 0.0
2017-Nov-16 09:00N 27°56' W 082°26'0 0.0
2017-Nov-16 08:30N 27°56' W 082°26'0 0.0
2017-Nov-16 08:00N 27°56' W 082°26'0 0.0
2017-Nov-16 07:30N 27°56' W 082°26'0 0.0
2017-Nov-16 07:00N 27°56' W 082°26'0 0.1
2017-Nov-16 06:30N 27°56' W 082°26'0 0.0
2017-Nov-16 06:00N 27°56' W 082°26'0 0.0
2017-Nov-16 05:30N 27°56' W 082°26'0 0.0
2017-Nov-16 05:00N 27°56' W 082°26'0 0.0
2017-Nov-16 04:30N 27°56' W 082°26'0 0.0
2017-Nov-16 04:00N 27°56' W 082°26'0 0.0
2017-Nov-16 03:30N 27°56' W 082°26'0 0.1
2017-Nov-16 03:00N 27°56' W 082°26'0 0.0
2017-Nov-16 02:30N 27°56' W 082°26'0 0.0
2017-Nov-16 02:00N 27°56' W 082°26'0 0.0
2017-Nov-16 01:30N 27°56' W 082°26'0 0.0
2017-Nov-16 00:57N 27°56' W 082°26'0 0.0
2017-Nov-16 00:30N 27°56' W 082°26'0 0.0
2017-Nov-16 00:00N 27°56' W 082°26'0 0.0
2017-Nov-15 23:30N 27°56' W 082°26'0 0.0
2017-Nov-15 23:00N 27°56' W 082°26'0 0.0
2017-Nov-15 22:30N 27°56' W 082°26'0 0.0
2017-Nov-15 22:00N 27°56' W 082°26'0 0.4
2017-Nov-15 21:30N 27°56' W 082°26'0 1.0
2017-Nov-15 21:00N 27°55' W 082°25'0 0.0
2017-Nov-15 20:30N 27°55' W 082°25'0 0.0
2017-Nov-15 20:00N 27°55' W 082°25'0 0.0
2017-Nov-15 19:30N 27°55' W 082°25'0 0.0
2017-Nov-15 19:00N 27°55' W 082°25'0 0.0
2017-Nov-15 18:30N 27°55' W 082°25'0 0.0
2017-Nov-15 18:00N 27°55' W 082°25'0 0.0
2017-Nov-15 17:30N 27°55' W 082°25'0 0.0
2017-Nov-15 17:00N 27°55' W 082°25'0 0.0
2017-Nov-15 16:30N 27°55' W 082°25'0 0.0
2017-Nov-15 16:00N 27°55' W 082°25'0 0.0
2017-Nov-15 15:30N 27°55' W 082°25'0 0.0
2017-Nov-15 15:00N 27°55' W 082°25'0 0.0
2017-Nov-15 14:30N 27°55' W 082°25'0 0.0
2017-Nov-15 14:00N 27°55' W 082°25'0 0.0
2017-Nov-15 13:30N 27°55' W 082°25'0 0.0
2017-Nov-15 13:00N 27°55' W 082°25'0 0.0
2017-Nov-15 12:30N 27°55' W 082°25'0 0.0
2017-Nov-15 12:00N 27°55' W 082°25'0 0.0
2017-Nov-15 11:30N 27°55' W 082°25'0 0.0
2017-Nov-15 10:57N 27°55' W 082°25'0 0.0
2017-Nov-15 10:30N 27°55' W 082°25'0 0.0
2017-Nov-15 10:00N 27°55' W 082°25'0 0.0
2017-Nov-15 09:30N 27°55' W 082°25'0 0.0
2017-Nov-15 09:00N 27°55' W 082°25'0 0.0
2017-Nov-15 08:30N 27°55' W 082°25'0 0.0
2017-Nov-15 08:00N 27°55' W 082°25'0 0.0
2017-Nov-15 07:30N 27°55' W 082°25'0 0.0
2017-Nov-15 07:00N 27°55' W 082°25'0 0.0
2017-Nov-15 06:30N 27°55' W 082°25'0 0.0
2017-Nov-15 06:00N 27°55' W 082°25'0 0.0
2017-Nov-15 05:30N 27°55' W 082°25'0 0.0
2017-Nov-15 05:00N 27°55' W 082°25'0 0.0
2017-Nov-15 04:30N 27°55' W 082°25'0 0.0
2017-Nov-15 04:00N 27°55' W 082°25'0 0.0
2017-Nov-15 03:30N 27°55' W 082°25'0 0.0
2017-Nov-15 03:00N 27°55' W 082°25'0 0.0
2017-Nov-15 02:30N 27°55' W 082°25'0 0.0
2017-Nov-15 02:00N 27°55' W 082°25'0 0.0
2017-Nov-15 01:30N 27°55' W 082°25'0 0.0
2017-Nov-15 01:00N 27°55' W 082°25'0 0.0
2017-Nov-15 00:30N 27°55' W 082°25'0 0.0
2017-Nov-15 00:00N 27°55' W 082°25'0 0.0
2017-Nov-14 23:30N 27°55' W 082°25'0 0.4
2017-Nov-14 23:00N 27°55' W 082°25'2 4.9
2017-Nov-14 22:30N 27°53' W 082°26'510.3
2017-Nov-14 22:00N 27°48' W 082°29'510.6
2017-Nov-14 21:30N 27°44' W 082°32'611.6
2017-Nov-14 20:58N 27°39' W 082°37'  

Dump ship's entire track history